createdAt,value
2023-03-07T00:00:43.801Z,17.17
2023-03-07T00:03:30.350Z,17.50
2023-03-07T00:06:16.870Z,19.07
2023-03-07T00:09:03.383Z,16.93
2023-03-07T00:11:50.060Z,17.73
2023-03-07T00:14:36.587Z,17.90
2023-03-07T00:17:23.123Z,13.73
2023-03-07T00:20:09.620Z,17.50
2023-03-07T00:22:56.116Z,18.03
2023-03-07T00:25:43.650Z,17.00
2023-03-07T00:28:30.198Z,14.23
2023-03-07T00:31:16.726Z,15.20
2023-03-07T00:34:03.252Z,17.07
2023-03-07T00:36:49.773Z,18.57
2023-03-07T00:39:36.304Z,16.83
2023-03-07T00:42:22.790Z,14.50
2023-03-07T00:45:09.286Z,17.50
2023-03-07T00:47:55.769Z,16.60
2023-03-07T00:50:42.287Z,15.90
2023-03-07T00:53:28.802Z,18.80
2023-03-07T00:56:15.326Z,17.10
2023-03-07T00:59:01.813Z,19.53
2023-03-07T01:01:48.322Z,17.67
2023-03-07T01:04:34.880Z,13.70
2023-03-07T01:07:21.391Z,17.30
2023-03-07T01:10:07.884Z,13.43
2023-03-07T01:12:55.429Z,15.03
2023-03-07T01:15:41.916Z,16.53
2023-03-07T01:18:33.416Z,14.73
2023-03-07T01:21:19.906Z,18.07
2023-03-07T01:24:06.408Z,14.63
2023-03-07T01:26:52.894Z,16.83
2023-03-07T01:29:39.459Z,17.23
2023-03-07T01:32:26.024Z,14.77
2023-03-07T01:35:12.614Z,15.73
2023-03-07T01:37:59.146Z,17.60
2023-03-07T01:40:45.671Z,13.90
2023-03-07T01:43:32.208Z,17.27
2023-03-07T01:46:18.768Z,15.20
2023-03-07T01:49:05.344Z,14.97
2023-03-07T01:51:51.831Z,15.50
2023-03-07T01:54:38.379Z,17.53
2023-03-07T01:57:24.934Z,15.03
2023-03-07T02:00:11.450Z,14.97
2023-03-07T02:02:59.646Z,18.43
2023-03-07T02:05:46.129Z,16.73
2023-03-07T02:08:32.632Z,16.53
2023-03-07T02:11:19.126Z,15.07
2023-03-07T02:14:05.841Z,16.40
2023-03-07T02:16:52.317Z,14.60
2023-03-07T02:19:38.816Z,16.50
2023-03-07T02:22:25.327Z,14.67
2023-03-07T02:25:11.861Z,15.10
2023-03-07T02:27:58.347Z,18.70
2023-03-07T02:30:44.883Z,19.47
2023-03-07T02:33:31.387Z,19.17
2023-03-07T02:36:17.895Z,15.40
2023-03-07T02:39:04.374Z,21.60
2023-03-07T02:41:50.957Z,19.93
2023-03-07T02:44:37.489Z,22.27
2023-03-07T02:47:23.988Z,20.07
2023-03-07T02:50:10.515Z,21.87
2023-03-07T02:52:57.056Z,20.27
2023-03-07T02:55:43.598Z,19.03
2023-03-07T02:58:30.121Z,21.03
2023-03-07T03:01:16.663Z,19.63
2023-03-07T03:04:03.239Z,19.67
2023-03-07T03:06:49.719Z,20.97
2023-03-07T03:09:36.218Z,19.30
2023-03-07T03:12:22.743Z,21.63
2023-03-07T03:15:09.239Z,21.10
2023-03-07T03:17:55.786Z,20.60
2023-03-07T03:20:42.302Z,19.03
2023-03-07T03:23:28.827Z,22.37
2023-03-07T03:26:15.413Z,18.47
2023-03-07T03:29:01.920Z,20.07
2023-03-07T03:31:48.431Z,22.33
2023-03-07T03:34:34.916Z,21.67
2023-03-07T03:37:21.464Z,20.23
2023-03-07T03:40:07.997Z,22.53
2023-03-07T03:42:56.531Z,21.30
2023-03-07T03:45:43.044Z,21.23
2023-03-07T03:48:29.582Z,21.87
2023-03-07T03:51:16.091Z,22.00
2023-03-07T03:54:02.631Z,21.17
2023-03-07T03:56:49.148Z,21.87
2023-03-07T03:59:35.696Z,22.23
2023-03-07T04:02:22.295Z,21.27
2023-03-07T04:05:08.836Z,21.33
2023-03-07T04:07:55.332Z,21.93
2023-03-07T04:10:41.810Z,22.37
2023-03-07T04:13:28.382Z,21.93
2023-03-07T04:16:15.185Z,21.70
2023-03-07T04:19:01.806Z,20.97
2023-03-07T04:21:48.293Z,22.10
2023-03-07T04:24:34.815Z,21.43
2023-03-07T04:27:21.313Z,20.93
2023-03-07T04:30:07.812Z,20.17
2023-03-07T04:32:54.369Z,21.53
2023-03-07T04:35:40.942Z,18.67
2023-03-07T04:38:27.474Z,23.73
2023-03-07T04:41:13.998Z,22.70
2023-03-07T04:44:00.530Z,23.27
2023-03-07T04:46:47.050Z,21.97
2023-03-07T04:49:33.546Z,22.47
2023-03-07T04:52:20.092Z,22.27
2023-03-07T04:55:06.651Z,20.37
2023-03-07T04:57:53.152Z,24.80
2023-03-07T05:00:39.667Z,20.23
2023-03-07T05:03:26.181Z,21.23
2023-03-07T05:06:12.724Z,22.63
2023-03-07T05:08:59.245Z,21.13
2023-03-07T05:11:45.755Z,21.97
2023-03-07T05:14:32.248Z,20.63
2023-03-07T05:17:18.837Z,25.10
2023-03-07T05:20:05.315Z,21.37
2023-03-07T05:22:51.847Z,19.50
2023-03-07T05:25:38.355Z,24.17
2023-03-07T05:28:24.882Z,27.67
2023-03-07T05:31:11.453Z,22.83
2023-03-07T05:33:57.977Z,27.87
2023-03-07T05:36:44.483Z,21.30
2023-03-07T05:39:31.055Z,22.70
2023-03-07T05:42:17.618Z,23.53
2023-03-07T05:45:04.134Z,21.00
2023-03-07T05:47:51.908Z,23.27
2023-03-07T05:50:38.434Z,22.87
2023-03-07T05:53:24.946Z,20.63
2023-03-07T05:56:11.583Z,24.03
2023-03-07T05:58:58.095Z,22.93
2023-03-07T06:01:46.235Z,22.43
2023-03-07T06:04:32.724Z,24.87
2023-03-07T06:07:19.244Z,24.47
2023-03-07T06:10:05.730Z,21.27
2023-03-07T06:12:52.238Z,21.83
2023-03-07T06:15:38.718Z,21.97
2023-03-07T06:18:25.300Z,23.17
2023-03-07T06:21:11.788Z,20.37
2023-03-07T06:23:58.291Z,24.37
2023-03-07T06:26:44.839Z,20.23
2023-03-07T06:29:31.367Z,20.93
2023-03-07T06:32:17.980Z,21.60
2023-03-07T06:35:04.551Z,20.83
2023-03-07T06:37:51.041Z,21.17
2023-03-07T06:40:37.571Z,18.53
2023-03-07T06:43:24.127Z,17.80
2023-03-07T06:46:11.711Z,17.13
2023-03-07T06:48:58.245Z,16.23
2023-03-07T06:51:44.780Z,18.93
2023-03-07T06:54:31.279Z,16.20
2023-03-07T06:57:17.822Z,19.70
2023-03-07T07:00:04.296Z,19.67
2023-03-07T07:02:51.240Z,19.03
2023-03-07T07:05:37.793Z,17.67
2023-03-07T07:08:24.355Z,17.17
2023-03-07T07:11:10.921Z,17.27
2023-03-07T07:13:57.467Z,16.77
2023-03-07T07:16:44.014Z,17.33
2023-03-07T07:19:30.643Z,15.77
2023-03-07T07:22:17.179Z,18.87
2023-03-07T07:25:03.788Z,17.60
2023-03-07T07:27:50.306Z,15.57
2023-03-07T07:30:36.817Z,15.83
2023-03-07T07:33:23.333Z,16.03
2023-03-07T07:36:09.877Z,19.97
2023-03-07T07:38:56.405Z,17.17
2023-03-07T07:41:42.897Z,16.93
2023-03-07T07:44:29.404Z,17.10
2023-03-07T07:47:16.898Z,14.67
2023-03-07T07:50:03.391Z,15.07
2023-03-07T07:52:51.483Z,17.53
2023-03-07T07:55:37.982Z,15.13
2023-03-07T07:58:24.494Z,15.70
2023-03-07T08:01:11.112Z,15.83
2023-03-07T08:03:59.639Z,15.17
2023-03-07T08:06:46.130Z,15.30
2023-03-07T08:09:32.690Z,16.03
2023-03-07T08:12:19.181Z,14.83
2023-03-07T08:15:05.697Z,14.97
2023-03-07T08:17:52.201Z,19.13
2023-03-07T08:20:38.750Z,14.63
2023-03-07T08:23:25.244Z,18.23
2023-03-07T08:26:11.751Z,12.90
2023-03-07T08:28:58.268Z,25.27
2023-03-07T08:31:44.780Z,16.73
2023-03-07T08:34:32.286Z,14.40
2023-03-07T08:37:18.899Z,14.03
2023-03-07T08:40:05.453Z,15.03
2023-03-07T08:42:52.006Z,15.97
2023-03-07T08:45:38.471Z,15.20
2023-03-07T08:48:25.017Z,12.87
2023-03-07T08:51:11.596Z,14.20
2023-03-07T08:53:58.082Z,14.33
2023-03-07T08:56:44.604Z,12.27
2023-03-07T08:59:31.151Z,12.20
2023-03-07T09:02:17.668Z,15.70
2023-03-07T09:05:04.190Z,13.50
2023-03-07T09:07:50.785Z,11.60
2023-03-07T09:10:37.280Z,12.53
2023-03-07T09:13:23.819Z,12.53
2023-03-07T09:16:10.343Z,13.13
2023-03-07T09:18:57.876Z,12.60
2023-03-07T09:21:44.453Z,12.30
2023-03-07T09:24:31.031Z,14.20
2023-03-07T09:27:17.522Z,12.03
2023-03-07T09:30:07.142Z,11.87
2023-03-07T09:32:53.627Z,17.00
2023-03-07T09:35:40.115Z,11.90
2023-03-07T09:38:26.669Z,14.07
2023-03-07T09:41:13.162Z,12.03
2023-03-07T09:43:59.704Z,11.47
2023-03-07T09:46:46.186Z,15.77
2023-03-07T09:49:32.753Z,11.63
2023-03-07T09:52:19.250Z,14.07
2023-03-07T09:55:05.820Z,10.23
2023-03-07T09:57:52.315Z,12.03
2023-03-07T10:00:38.826Z,18.17
2023-03-07T10:03:25.416Z,11.93
2023-03-07T10:06:12.017Z,12.63
2023-03-07T10:12:04.790Z,11.90
2023-03-07T10:14:51.471Z,10.77
2023-03-07T10:17:37.980Z,12.37
2023-03-07T10:20:24.527Z,12.80
2023-03-07T10:23:11.368Z,10.17
2023-03-07T10:25:57.876Z,11.37
2023-03-07T10:28:44.436Z,11.63
2023-03-07T10:31:30.948Z,11.13
2023-03-07T10:34:26.448Z,10.27
2023-03-07T10:37:13.737Z,10.40
2023-03-07T10:40:00.227Z,10.43
2023-03-07T10:42:46.715Z,10.23
2023-03-07T10:45:33.242Z,8.93
2023-03-07T10:48:19.741Z,9.03
2023-03-07T10:51:06.273Z,8.73
2023-03-07T10:53:52.759Z,8.23
2023-03-07T10:56:39.259Z,8.53
2023-03-07T10:59:25.737Z,8.27
2023-03-07T11:02:12.245Z,8.33
2023-03-07T11:04:58.788Z,10.93
2023-03-07T11:07:45.362Z,10.47
2023-03-07T11:10:31.854Z,9.03
2023-03-07T11:13:18.376Z,8.93
2023-03-07T11:16:11.461Z,13.60
2023-03-07T11:18:58.440Z,10.37
2023-03-07T11:21:44.912Z,13.50
2023-03-07T11:24:31.729Z,11.70
2023-03-07T11:27:19.354Z,12.70
2023-03-07T11:30:05.869Z,8.57
2023-03-07T11:32:52.360Z,8.73
2023-03-07T11:35:38.941Z,9.83
2023-03-07T11:38:25.451Z,10.40
2023-03-07T11:41:12.013Z,9.50
2023-03-07T11:43:58.533Z,10.13
2023-03-07T11:46:45.076Z,8.70
2023-03-07T11:49:31.699Z,7.23
2023-03-07T11:52:18.226Z,6.80
2023-03-07T11:55:04.787Z,8.33
2023-03-07T11:57:51.292Z,8.73
2023-03-07T12:00:37.778Z,9.80
2023-03-07T12:03:24.291Z,7.30
2023-03-07T12:06:11.801Z,8.67
2023-03-07T12:08:58.280Z,14.63
2023-03-07T12:11:44.788Z,8.30
2023-03-07T12:14:31.309Z,8.33
2023-03-07T12:17:17.816Z,8.07
2023-03-07T12:20:04.411Z,9.00
2023-03-07T12:22:50.926Z,7.13
2023-03-07T12:25:37.524Z,6.53
2023-03-07T12:28:24.058Z,9.30
2023-03-07T12:31:10.652Z,10.10
2023-03-07T12:34:00.019Z,10.23
2023-03-07T12:36:46.557Z,15.73
2023-03-07T12:39:33.072Z,8.90
2023-03-07T12:42:19.577Z,7.00
2023-03-07T12:45:06.072Z,7.90
2023-03-07T12:47:52.550Z,7.67
2023-03-07T12:50:39.045Z,13.73
2023-03-07T12:53:25.561Z,7.80
2023-03-07T12:56:12.162Z,9.83
2023-03-07T12:58:58.686Z,8.70
2023-03-07T13:01:45.177Z,7.60
2023-03-07T13:04:31.716Z,10.10
2023-03-07T13:07:18.230Z,8.93
2023-03-07T13:10:04.739Z,9.33
2023-03-07T13:12:51.228Z,8.03
2023-03-07T13:15:38.767Z,9.30
2023-03-07T13:18:25.249Z,9.37
2023-03-07T13:21:11.786Z,9.50
2023-03-07T13:23:58.284Z,10.03
2023-03-07T13:26:44.855Z,9.43
2023-03-07T13:29:31.370Z,8.27
2023-03-07T13:32:17.920Z,9.47
2023-03-07T13:35:04.521Z,10.70
2023-03-07T13:37:51.029Z,9.40
2023-03-07T13:40:37.535Z,10.23
2023-03-07T13:43:26.318Z,10.63
2023-03-07T13:46:14.262Z,11.47
2023-03-07T13:49:00.839Z,9.27
2023-03-07T13:51:47.336Z,10.60
2023-03-07T13:54:33.864Z,9.73
2023-03-07T13:57:20.362Z,11.77
2023-03-07T14:00:06.900Z,12.63
2023-03-07T14:02:53.445Z,11.50
2023-03-07T14:05:40.093Z,10.80
2023-03-07T14:08:26.739Z,10.87
2023-03-07T14:11:13.240Z,10.77
2023-03-07T14:14:00.837Z,9.80
2023-03-07T14:16:47.362Z,11.23
2023-03-07T14:19:34.004Z,10.47
2023-03-07T14:22:20.556Z,11.60
2023-03-07T14:25:07.037Z,10.50
2023-03-07T14:27:53.720Z,13.80
2023-03-07T14:30:40.376Z,10.33
2023-03-07T14:33:26.971Z,13.80
2023-03-07T14:36:13.574Z,10.93
2023-03-07T14:39:00.228Z,13.23
2023-03-07T14:41:46.725Z,11.40
2023-03-07T14:44:33.392Z,10.97
2023-03-07T14:47:20.090Z,12.30
2023-03-07T14:50:06.729Z,12.03
2023-03-07T14:52:53.275Z,12.97
2023-03-07T14:55:39.821Z,12.73
2023-03-07T14:58:26.367Z,12.97
2023-03-07T15:01:12.915Z,12.73
2023-03-07T15:03:59.442Z,11.77
2023-03-07T15:06:46.220Z,14.50
2023-03-07T15:09:32.726Z,14.10
2023-03-07T15:12:19.375Z,11.90
2023-03-07T15:15:05.968Z,12.63
2023-03-07T15:17:53.575Z,13.70
2023-03-07T15:20:40.104Z,12.57
2023-03-07T15:23:26.692Z,17.60
2023-03-07T15:26:13.239Z,12.37
2023-03-07T15:28:59.962Z,14.70
2023-03-07T15:31:46.594Z,50.43
2023-03-07T15:34:33.339Z,14.10
2023-03-07T15:37:19.883Z,15.40
2023-03-07T15:40:06.456Z,11.50
2023-03-07T15:42:52.991Z,13.17
2023-03-07T15:45:39.582Z,14.17
2023-03-07T15:48:27.248Z,12.87
2023-03-07T15:51:13.745Z,13.27
2023-03-07T15:54:00.405Z,13.53
2023-03-07T15:56:47.007Z,14.37
2023-03-07T15:59:33.615Z,12.93
2023-03-07T16:02:20.148Z,15.03
2023-03-07T16:05:06.715Z,13.60
2023-03-07T16:07:53.205Z,15.57
2023-03-07T16:10:40.065Z,12.33
2023-03-07T16:13:26.736Z,18.03
2023-03-07T16:16:13.339Z,14.37
2023-03-07T16:18:59.914Z,13.97
2023-03-07T16:21:46.432Z,13.80
2023-03-07T16:24:32.965Z,13.63
2023-03-07T16:27:19.494Z,15.73
2023-03-07T16:30:06.051Z,14.47
2023-03-07T16:32:52.584Z,12.83
2023-03-07T16:35:39.134Z,18.03
2023-03-07T16:38:25.649Z,15.90
2023-03-07T16:41:12.200Z,12.40
2023-03-07T16:43:58.701Z,11.27
2023-03-07T16:46:45.249Z,16.57
2023-03-07T16:49:31.779Z,12.10
2023-03-07T16:52:18.266Z,14.03
2023-03-07T16:55:04.791Z,12.13
2023-03-07T16:57:51.300Z,15.97
2023-03-07T17:00:37.863Z,11.20
2023-03-07T17:03:24.426Z,12.43
2023-03-07T17:06:10.976Z,13.67
2023-03-07T17:08:57.459Z,14.63
2023-03-07T17:11:44.010Z,14.47
2023-03-07T17:14:30.536Z,13.93
2023-03-07T17:17:17.075Z,12.77
2023-03-07T17:20:03.603Z,13.23
2023-03-07T17:22:50.082Z,15.20
2023-03-07T17:25:38.286Z,17.43
2023-03-07T17:28:24.839Z,14.83
2023-03-07T17:31:11.419Z,15.53
2023-03-07T17:33:57.928Z,16.37
2023-03-07T17:36:44.429Z,16.73
2023-03-07T17:39:31.003Z,17.47
2023-03-07T17:42:17.558Z,16.50
2023-03-07T17:45:04.027Z,17.67
2023-03-07T17:47:50.577Z,20.93
2023-03-07T17:50:37.140Z,20.93
2023-03-07T17:53:23.628Z,17.90
2023-03-07T17:56:10.161Z,19.90
2023-03-07T17:58:56.692Z,16.73
2023-03-07T18:01:43.276Z,16.07
2023-03-07T18:04:29.787Z,16.57
2023-03-07T18:07:16.339Z,15.13
2023-03-07T18:10:08.487Z,15.73
2023-03-07T18:12:57.565Z,19.10
2023-03-07T18:15:44.063Z,21.87
2023-03-07T18:18:30.590Z,17.00
2023-03-07T18:21:17.078Z,20.17
2023-03-07T18:24:03.666Z,16.03
2023-03-07T18:26:50.207Z,21.50
2023-03-07T18:29:36.799Z,16.00
2023-03-07T18:32:23.589Z,21.10
2023-03-07T18:35:10.166Z,17.50
2023-03-07T18:37:56.758Z,18.80
2023-03-07T18:40:43.286Z,18.77
2023-03-07T18:43:30.870Z,19.53
2023-03-07T18:46:17.433Z,22.17
2023-03-07T18:49:03.998Z,20.67
2023-03-07T18:51:50.503Z,19.17
2023-03-07T18:54:36.986Z,19.80
2023-03-07T18:57:23.559Z,18.63
2023-03-07T19:00:10.056Z,22.63
2023-03-07T19:02:56.622Z,19.20
2023-03-07T19:05:43.154Z,20.43
2023-03-07T19:08:29.679Z,17.77
2023-03-07T19:11:16.232Z,23.37
2023-03-07T19:14:02.724Z,17.20
2023-03-07T19:16:49.402Z,35.40
2023-03-07T19:19:36.023Z,17.97
2023-03-07T19:22:22.511Z,20.53
2023-03-07T19:25:10.135Z,19.27
2023-03-07T19:27:56.654Z,19.07
2023-03-07T19:30:43.169Z,16.60
2023-03-07T19:33:29.732Z,21.67
2023-03-07T19:36:16.300Z,22.60
2023-03-07T19:39:02.960Z,23.53
2023-03-07T19:41:49.565Z,23.40
2023-03-07T19:44:36.105Z,21.37
2023-03-07T19:47:22.595Z,19.03
2023-03-07T19:50:09.271Z,19.13
2023-03-07T19:52:55.816Z,20.33
2023-03-07T19:55:42.313Z,22.13
2023-03-07T19:58:30.379Z,21.27
2023-03-07T20:01:16.961Z,20.13
2023-03-07T20:04:04.605Z,20.83
2023-03-07T20:06:51.172Z,19.27
2023-03-07T20:09:37.752Z,20.20
2023-03-07T20:12:24.296Z,18.17
2023-03-07T20:15:10.831Z,21.70
2023-03-07T20:17:57.324Z,18.00
2023-03-07T20:20:43.915Z,17.50
2023-03-07T20:23:30.452Z,20.33
2023-03-07T20:26:16.981Z,23.17
2023-03-07T20:29:03.472Z,23.07
2023-03-07T20:31:50.151Z,18.60
2023-03-07T20:34:36.781Z,18.90
2023-03-07T20:37:23.337Z,21.13
2023-03-07T20:40:09.911Z,19.83
2023-03-07T20:42:56.408Z,24.93
2023-03-07T20:45:43.043Z,19.77
2023-03-07T20:48:29.589Z,16.93
2023-03-07T20:51:16.161Z,18.67
2023-03-07T20:54:02.662Z,18.40
2023-03-07T20:56:49.251Z,16.07
2023-03-07T20:59:35.776Z,15.73
2023-03-07T21:02:22.296Z,15.80
2023-03-07T21:05:08.850Z,15.53
2023-03-07T21:07:55.330Z,14.73
2023-03-07T21:10:41.873Z,13.67
2023-03-07T21:13:28.399Z,15.37
2023-03-07T21:16:14.943Z,13.97
2023-03-07T21:19:01.832Z,12.23
2023-03-07T21:21:48.407Z,12.63
2023-03-07T21:24:34.898Z,11.17
2023-03-07T21:27:21.459Z,12.80
2023-03-07T21:30:07.985Z,10.07
2023-03-07T21:32:54.472Z,11.83
2023-03-07T21:35:41.022Z,15.47
2023-03-07T21:38:28.546Z,13.27
2023-03-07T21:41:15.095Z,13.33
2023-03-07T21:44:01.584Z,19.47
2023-03-07T21:46:48.094Z,13.17
2023-03-07T21:49:34.717Z,10.73
2023-03-07T21:52:21.261Z,12.60
2023-03-07T21:55:07.806Z,11.23
2023-03-07T21:57:54.456Z,13.33
2023-03-07T22:00:41.006Z,9.60
2023-03-07T22:03:27.531Z,11.33
2023-03-07T22:06:14.012Z,11.57
2023-03-07T22:09:00.534Z,10.63
2023-03-07T22:11:47.029Z,9.07
2023-03-07T22:14:33.572Z,12.63
2023-03-07T22:17:20.111Z,8.57
2023-03-07T22:20:06.622Z,10.63
2023-03-07T22:22:53.112Z,9.07
2023-03-07T22:25:39.597Z,8.03
2023-03-07T22:28:26.110Z,10.10
2023-03-07T22:31:12.583Z,8.90
2023-03-07T22:33:59.111Z,9.37
2023-03-07T22:36:45.657Z,10.13
2023-03-07T22:39:32.165Z,8.83
2023-03-07T22:42:18.729Z,10.43
2023-03-07T22:45:05.207Z,9.47
2023-03-07T22:47:51.837Z,10.13
2023-03-07T22:50:38.353Z,10.27
2023-03-07T22:53:27.048Z,9.50
2023-03-07T22:56:13.775Z,8.63
2023-03-07T22:59:00.317Z,9.80
2023-03-07T23:01:46.825Z,7.37
2023-03-07T23:04:34.419Z,6.40
2023-03-07T23:07:21.037Z,7.40
2023-03-07T23:10:07.574Z,6.10
2023-03-07T23:12:54.332Z,7.10
2023-03-07T23:15:40.862Z,6.47
2023-03-07T23:18:27.437Z,7.47
2023-03-07T23:21:13.923Z,8.30
2023-03-07T23:24:00.453Z,7.20
2023-03-07T23:26:46.972Z,6.53
2023-03-07T23:29:33.472Z,5.70
2023-03-07T23:32:19.976Z,7.17
2023-03-07T23:35:06.538Z,5.37
2023-03-07T23:37:53.045Z,6.50
2023-03-07T23:40:40.536Z,7.00
2023-03-07T23:43:27.039Z,7.57
2023-03-07T23:46:13.583Z,6.93
2023-03-07T23:49:00.164Z,8.17
2023-03-07T23:51:46.688Z,9.87
2023-03-07T23:54:33.196Z,7.83
2023-03-07T23:57:19.712Z,7.37
